KSHL

Sheldon Regional Airport

Sheldon, Iowa, USA
METAR KSHL 231135Z AUTO 34004KT 10SM CLR M04/M04 A3034 RMK AO2
Observed Flight Rules
Oct-23 @ 11:35 UTC (15 minutes ago) Visual Flight Rules
Wind Visibility Clouds
340° at 4 knots 10 miles
  • Clear skies
Temperatures Readings
Current -4°C / 25°F
Dewpoint -4°C / 25°F
Humidity 100%
Altimeter 30.34" Hg
Pressure 1027 hPa
Elevation 432
METAR KSHL 231135Z AUTO 34004KT 10SM CLR M04/M04 A3034 RMK AO2
Observed Flight Rules
Oct-23 @ 11:35 UTC
(15 minutes ago)
VFR
Wind Visibility
340° at 4 knots 10 miles
Clouds
  • Clear skies
Temperature Dewpoint
-4°C / 25°F -4°C / 25°F
Humidity Altimeter Pressure
100% 30.34" Hg 1027 hPa